LTBI/ESK METAR and TAF weather

Enter ICAO airport designator
Station Type Date Time Source
LTBI METAR 2021/10/20 05:50 UTC NOAA

LTBI 200550Z 00000KT 6000 SCT040 07/05 Q1027 NOSIG RMK RWY08 29005KT


Station Type Date Time Source
LTBI Decoded METAR 2021/10/20 05:50 UTC NOAA

Eskisehir, Turkey (LTBI) 39-47N 030-34E 785M
Oct 20, 2021 - 01:50 AM EDT / 2021.10.20 0550 UTC
Wind: Calm:0
Visibility: 3 mile(s):0
Sky conditions: partly cloudy
Temperature: 44 F (7 C)
Dew Point: 41 F (5 C)
Relative Humidity: 87%
Pressure (altimeter): 30.33 in. Hg (1027 hPa)
ob: LTBI 200550Z 00000KT 6000 SCT040 07/05 Q1027 NOSIG RMK RWY08 29005KT
cycle: 6

Station Type Date Time Source
LTBI TAF 2012/05/11 09:09 UTC NOAA

TAF LTBI 110740Z 1109/1121 VRB02KT 6000 -SHRA BKN030 BKN090
TEMPO 1112/1116 33015KT 4000 -TSRA FEW025CB BKN030

Example: see airport list